Ferdinand, Idaho
Current Conditions -  °F | °C
As of 5:35 AM on Saturday 20 Dec 2014 (Local Time) from KGIC Reporting Station
Overcast Overcast  
Wind Chill: 29°   Ceiling: 7500
Heat Index: 33°   Visibility: 10mi
Dew Point: 30°   Wind: 5mph
Humidity: 89%   Direction: 100°E
Pressure: 29.94"   Gusts: NA
Location:  46.15°N, 116.39°W
Report Text: KGIC 201335Z AUTO 10004KT 10SM SCT060 OVC075 01/M01 A2994 RMK AO1 T00051011
Loading
Personal Weather Stations






























Interactive Weather Map New forecast layout! Learn more

10-Day Weather Forecast

Advertisements
Track Severe Weather on mobile